sensor_id;sensor_type;location;lat;lon;timestamp;temperature;humidity
26254;DHT22;53339;51.378;0.094;2023-07-31T00:01:28;16.70;87.00
26254;DHT22;53339;51.378;0.094;2023-07-31T00:04:00;16.60;87.30
26254;DHT22;53339;51.378;0.094;2023-07-31T00:06:34;16.60;87.50
26254;DHT22;53339;51.378;0.094;2023-07-31T00:09:09;16.50;87.70
26254;DHT22;53339;51.378;0.094;2023-07-31T00:11:40;16.40;87.90
26254;DHT22;53339;51.378;0.094;2023-07-31T00:14:08;16.40;88.10
26254;DHT22;53339;51.378;0.094;2023-07-31T00:16:44;16.30;88.30
26254;DHT22;53339;51.378;0.094;2023-07-31T00:19:23;16.30;88.40
26254;DHT22;53339;51.378;0.094;2023-07-31T00:21:52;16.30;88.60
26254;DHT22;53339;51.378;0.094;2023-07-31T00:24:21;16.30;88.70
26254;DHT22;53339;51.378;0.094;2023-07-31T00:26:56;16.30;88.80
26254;DHT22;53339;51.378;0.094;2023-07-31T00:29:28;16.30;88.90
26254;DHT22;53339;51.378;0.094;2023-07-31T00:32:04;16.20;88.90
26254;DHT22;53339;51.378;0.094;2023-07-31T00:34:40;16.30;89.10
26254;DHT22;53339;51.378;0.094;2023-07-31T00:37:14;16.30;89.20
26254;DHT22;53339;51.378;0.094;2023-07-31T00:39:46;16.30;89.30
26254;DHT22;53339;51.378;0.094;2023-07-31T00:42:26;16.30;89.30
26254;DHT22;53339;51.378;0.094;2023-07-31T00:45:03;16.30;89.40
26254;DHT22;53339;51.378;0.094;2023-07-31T00:47:34;16.40;89.50
26254;DHT22;53339;51.378;0.094;2023-07-31T00:50:03;16.40;89.50
26254;DHT22;53339;51.378;0.094;2023-07-31T00:52:35;16.40;89.60
26254;DHT22;53339;51.378;0.094;2023-07-31T00:55:27;16.40;89.60
26254;DHT22;53339;51.378;0.094;2023-07-31T00:57:57;16.40;89.70
26254;DHT22;53339;51.378;0.094;2023-07-31T01:00:26;16.40;89.70
26254;DHT22;53339;51.378;0.094;2023-07-31T01:02:58;16.40;89.70
26254;DHT22;53339;51.378;0.094;2023-07-31T01:06:01;16.40;89.80
26254;DHT22;53339;51.378;0.094;2023-07-31T01:11:30;16.50;89.90
26254;DHT22;53339;51.378;0.094;2023-07-31T01:14:05;16.50;89.90
26254;DHT22;53339;51.378;0.094;2023-07-31T01:16:37;16.50;89.90
26254;DHT22;53339;51.378;0.094;2023-07-31T01:19:15;16.50;89.90
26254;DHT22;53339;51.378;0.094;2023-07-31T01:28:03;16.60;90.00
26254;DHT22;53339;51.378;0.094;2023-07-31T01:30:43;16.60;90.00
26254;DHT22;53339;51.378;0.094;2023-07-31T01:33:17;16.60;90.00
26254;DHT22;53339;51.378;0.094;2023-07-31T01:35:52;16.60;90.00
26254;DHT22;53339;51.378;0.094;2023-07-31T01:38:22;16.60;90.10
26254;DHT22;53339;51.378;0.094;2023-07-31T01:40:52;16.60;90.10
26254;DHT22;53339;51.378;0.094;2023-07-31T01:43:23;16.60;90.10
26254;DHT22;53339;51.378;0.094;2023-07-31T01:45:55;16.60;90.10
26254;DHT22;53339;51.378;0.094;2023-07-31T01:48:26;16.60;90.10
26254;DHT22;53339;51.378;0.094;2023-07-31T01:50:55;16.70;90.10
26254;DHT22;53339;51.378;0.094;2023-07-31T01:53:26;16.60;90.10
26254;DHT22;53339;51.378;0.094;2023-07-31T01:55:57;16.70;90.10
26254;DHT22;53339;51.378;0.094;2023-07-31T01:58:27;16.70;90.10
26254;DHT22;53339;51.378;0.094;2023-07-31T02:01:01;16.70;90.10
26254;DHT22;53339;51.378;0.094;2023-07-31T02:03:40;16.70;90.10
26254;DHT22;53339;51.378;0.094;2023-07-31T02:06:27;16.70;90.10
26254;DHT22;53339;51.378;0.094;2023-07-31T02:09:03;16.70;90.10
26254;DHT22;53339;51.378;0.094;2023-07-31T02:11:34;16.70;90.20
26254;DHT22;53339;51.378;0.094;2023-07-31T02:14:03;16.70;90.20
26254;DHT22;53339;51.378;0.094;2023-07-31T02:16:38;16.70;90.20
26254;DHT22;53339;51.378;0.094;2023-07-31T02:19:18;16.70;90.20
26254;DHT22;53339;51.378;0.094;2023-07-31T02:21:51;16.70;90.20
26254;DHT22;53339;51.378;0.094;2023-07-31T02:24:24;16.80;90.20
26254;DHT22;53339;51.378;0.094;2023-07-31T02:26:56;16.80;90.20
26254;DHT22;53339;51.378;0.094;2023-07-31T02:29:30;16.80;90.20
26254;DHT22;53339;51.378;0.094;2023-07-31T02:32:00;16.80;90.20
26254;DHT22;53339;51.378;0.094;2023-07-31T02:34:39;16.80;90.20
26254;DHT22;53339;51.378;0.094;2023-07-31T02:37:14;16.90;90.20
26254;DHT22;53339;51.378;0.094;2023-07-31T02:39:45;16.90;90.20
26254;DHT22;53339;51.378;0.094;2023-07-31T02:42:14;16.90;90.20
26254;DHT22;53339;51.378;0.094;2023-07-31T02:44:45;16.90;90.20
26254;DHT22;53339;51.378;0.094;2023-07-31T02:47:18;16.90;90.20
26254;DHT22;53339;51.378;0.094;2023-07-31T02:50:06;16.90;90.20
26254;DHT22;53339;51.378;0.094;2023-07-31T02:52:38;16.90;90.30
26254;DHT22;53339;51.378;0.094;2023-07-31T02:55:07;16.90;90.30
26254;DHT22;53339;51.378;0.094;2023-07-31T02:57:38;16.90;90.30
26254;DHT22;53339;51.378;0.094;2023-07-31T03:00:08;16.90;90.30
26254;DHT22;53339;51.378;0.094;2023-07-31T03:02:41;16.90;90.30
26254;DHT22;53339;51.378;0.094;2023-07-31T03:05:16;16.90;90.30
26254;DHT22;53339;51.378;0.094;2023-07-31T03:07:51;17.00;90.30
26254;DHT22;53339;51.378;0.094;2023-07-31T03:10:28;17.00;90.30
26254;DHT22;53339;51.378;0.094;2023-07-31T03:12:59;17.00;90.30
26254;DHT22;53339;51.378;0.094;2023-07-31T03:15:29;17.00;90.30
26254;DHT22;53339;51.378;0.094;2023-07-31T03:17:58;17.10;90.40
26254;DHT22;53339;51.378;0.094;2023-07-31T03:20:35;17.10;90.40
26254;DHT22;53339;51.378;0.094;2023-07-31T03:23:12;17.10;90.40
26254;DHT22;53339;51.378;0.094;2023-07-31T03:26:02;17.10;90.30
26254;DHT22;53339;51.378;0.094;2023-07-31T03:28:34;17.10;90.40
26254;DHT22;53339;51.378;0.094;2023-07-31T03:31:09;17.10;90.40
26254;DHT22;53339;51.378;0.094;2023-07-31T03:33:47;17.10;90.40
26254;DHT22;53339;51.378;0.094;2023-07-31T03:36:28;17.20;90.40
26254;DHT22;53339;51.378;0.094;2023-07-31T03:39:09;17.10;90.40
26254;DHT22;53339;51.378;0.094;2023-07-31T03:41:46;17.10;90.40
26254;DHT22;53339;51.378;0.094;2023-07-31T03:44:30;17.20;90.30
26254;DHT22;53339;51.378;0.094;2023-07-31T03:46:59;17.20;90.30
26254;DHT22;53339;51.378;0.094;2023-07-31T03:49:31;17.20;90.30
26254;DHT22;53339;51.378;0.094;2023-07-31T03:52:00;17.20;90.30
26254;DHT22;53339;51.378;0.094;2023-07-31T03:54:28;17.20;90.30
26254;DHT22;53339;51.378;0.094;2023-07-31T03:56:57;17.20;90.30
26254;DHT22;53339;51.378;0.094;2023-07-31T03:59:27;17.20;90.30
26254;DHT22;53339;51.378;0.094;2023-07-31T04:02:03;17.30;90.30
26254;DHT22;53339;51.378;0.094;2023-07-31T04:04:40;17.30;90.30
26254;DHT22;53339;51.378;0.094;2023-07-31T04:07:14;17.30;90.30
26254;DHT22;53339;51.378;0.094;2023-07-31T04:09:46;17.30;90.30
26254;DHT22;53339;51.378;0.094;2023-07-31T04:12:18;17.30;90.40
26254;DHT22;53339;51.378;0.094;2023-07-31T04:14:47;17.30;90.30
26254;DHT22;53339;51.378;0.094;2023-07-31T04:17:19;17.30;90.30
26254;DHT22;53339;51.378;0.094;2023-07-31T04:19:55;17.30;90.30
26254;DHT22;53339;51.378;0.094;2023-07-31T04:22:29;17.30;90.40
26254;DHT22;53339;51.378;0.094;2023-07-31T04:25:12;17.30;90.40
26254;DHT22;53339;51.378;0.094;2023-07-31T04:27:43;17.30;90.40
26254;DHT22;53339;51.378;0.094;2023-07-31T04:30:11;17.40;90.40
26254;DHT22;53339;51.378;0.094;2023-07-31T04:32:43;17.40;90.40
26254;DHT22;53339;51.378;0.094;2023-07-31T04:35:17;17.40;90.40
26254;DHT22;53339;51.378;0.094;2023-07-31T04:37:53;17.40;90.40
26254;DHT22;53339;51.378;0.094;2023-07-31T04:40:28;17.40;90.40
26254;DHT22;53339;51.378;0.094;2023-07-31T04:43:04;17.40;90.40
26254;DHT22;53339;51.378;0.094;2023-07-31T04:45:38;17.40;90.30
26254;DHT22;53339;51.378;0.094;2023-07-31T04:48:10;17.40;90.40
26254;DHT22;53339;51.378;0.094;2023-07-31T04:50:48;17.50;90.30
26254;DHT22;53339;51.378;0.094;2023-07-31T04:53:23;17.50;90.30
26254;DHT22;53339;51.378;0.094;2023-07-31T04:55:55;17.50;90.30
26254;DHT22;53339;51.378;0.094;2023-07-31T04:58:33;17.50;90.30
26254;DHT22;53339;51.378;0.094;2023-07-31T05:01:07;17.50;90.30
26254;DHT22;53339;51.378;0.094;2023-07-31T05:03:39;17.60;90.30
26254;DHT22;53339;51.378;0.094;2023-07-31T05:06:11;17.60;90.20
26254;DHT22;53339;51.378;0.094;2023-07-31T05:08:50;17.60;90.20
26254;DHT22;53339;51.378;0.094;2023-07-31T05:11:18;17.60;90.20
26254;DHT22;53339;51.378;0.094;2023-07-31T05:13:50;17.60;90.20
26254;DHT22;53339;51.378;0.094;2023-07-31T05:16:18;17.50;90.10
26254;DHT22;53339;51.378;0.094;2023-07-31T05:18:54;17.50;90.10
26254;DHT22;53339;51.378;0.094;2023-07-31T05:21:23;17.50;90.10
26254;DHT22;53339;51.378;0.094;2023-07-31T05:23:55;17.50;90.10
26254;DHT22;53339;51.378;0.094;2023-07-31T05:26:33;17.50;90.10
26254;DHT22;53339;51.378;0.094;2023-07-31T05:29:01;17.50;90.20
26254;DHT22;53339;51.378;0.094;2023-07-31T05:31:31;17.50;90.20
26254;DHT22;53339;51.378;0.094;2023-07-31T05:34:04;17.60;90.30
26254;DHT22;53339;51.378;0.094;2023-07-31T05:36:31;17.60;90.30
26254;DHT22;53339;51.378;0.094;2023-07-31T05:39:00;17.60;90.30
26254;DHT22;53339;51.378;0.094;2023-07-31T05:41:28;17.70;90.30
26254;DHT22;53339;51.378;0.094;2023-07-31T05:44:03;17.70;90.30
26254;DHT22;53339;51.378;0.094;2023-07-31T05:46:33;17.70;90.30
26254;DHT22;53339;51.378;0.094;2023-07-31T05:49:12;17.80;90.30
26254;DHT22;53339;51.378;0.094;2023-07-31T05:51:41;17.80;90.20
26254;DHT22;53339;51.378;0.094;2023-07-31T05:54:11;17.90;90.20
26254;DHT22;53339;51.378;0.094;2023-07-31T05:56:43;17.90;90.00
26254;DHT22;53339;51.378;0.094;2023-07-31T05:59:17;17.90;89.90
26254;DHT22;53339;51.378;0.094;2023-07-31T06:01:48;18.00;89.90
26254;DHT22;53339;51.378;0.094;2023-07-31T06:04:20;18.00;89.80
26254;DHT22;53339;51.378;0.094;2023-07-31T06:06:56;18.00;89.80
26254;DHT22;53339;51.378;0.094;2023-07-31T06:09:28;18.10;89.70
26254;DHT22;53339;51.378;0.094;2023-07-31T06:11:59;18.20;89.60
26254;DHT22;53339;51.378;0.094;2023-07-31T06:14:34;18.20;89.50
26254;DHT22;53339;51.378;0.094;2023-07-31T06:17:05;18.20;89.50
26254;DHT22;53339;51.378;0.094;2023-07-31T06:19:41;18.30;89.30
26254;DHT22;53339;51.378;0.094;2023-07-31T06:22:11;18.40;89.10
26254;DHT22;53339;51.378;0.094;2023-07-31T06:24:41;18.40;88.90
26254;DHT22;53339;51.378;0.094;2023-07-31T06:27:19;18.40;88.60
26254;DHT22;53339;51.378;0.094;2023-07-31T06:29:54;18.50;88.40
26254;DHT22;53339;51.378;0.094;2023-07-31T06:32:28;18.50;88.40
26254;DHT22;53339;51.378;0.094;2023-07-31T06:35:03;18.50;88.50
26254;DHT22;53339;51.378;0.094;2023-07-31T06:37:34;18.60;88.30
26254;DHT22;53339;51.378;0.094;2023-07-31T06:40:23;18.60;88.10
26254;DHT22;53339;51.378;0.094;2023-07-31T06:42:52;18.60;88.20
26254;DHT22;53339;51.378;0.094;2023-07-31T06:45:25;18.70;88.20
26254;DHT22;53339;51.378;0.094;2023-07-31T06:47:53;18.70;88.30
26254;DHT22;53339;51.378;0.094;2023-07-31T06:50:22;18.90;87.90
26254;DHT22;53339;51.378;0.094;2023-07-31T06:52:50;18.90;87.90
26254;DHT22;53339;51.378;0.094;2023-07-31T06:55:20;19.00;87.30
26254;DHT22;53339;51.378;0.094;2023-07-31T06:57:52;19.00;87.30
26254;DHT22;53339;51.378;0.094;2023-07-31T07:00:24;19.00;87.20
26254;DHT22;53339;51.378;0.094;2023-07-31T07:02:53;19.00;87.20
26254;DHT22;53339;51.378;0.094;2023-07-31T07:05:23;19.10;87.30
26254;DHT22;53339;51.378;0.094;2023-07-31T07:07:53;19.10;86.90
26254;DHT22;53339;51.378;0.094;2023-07-31T07:10:21;19.10;87.00
26254;DHT22;53339;51.378;0.094;2023-07-31T07:12:54;19.00;87.10
26254;DHT22;53339;51.378;0.094;2023-07-31T07:15:24;19.00;87.00
26254;DHT22;53339;51.378;0.094;2023-07-31T07:17:57;19.00;86.80
26254;DHT22;53339;51.378;0.094;2023-07-31T07:20:29;19.00;86.80
26254;DHT22;53339;51.378;0.094;2023-07-31T07:22:57;19.00;86.70
26254;DHT22;53339;51.378;0.094;2023-07-31T07:25:28;19.00;86.40
26254;DHT22;53339;51.378;0.094;2023-07-31T07:28:05;19.10;86.50
26254;DHT22;53339;51.378;0.094;2023-07-31T07:31:08;19.10;86.30
26254;DHT22;53339;51.378;0.094;2023-07-31T07:34:02;19.20;86.20
26254;DHT22;53339;51.378;0.094;2023-07-31T07:36:32;19.20;86.00
26254;DHT22;53339;51.378;0.094;2023-07-31T07:39:05;19.30;85.90
26254;DHT22;53339;51.378;0.094;2023-07-31T07:41:35;19.30;85.80
26254;DHT22;53339;51.378;0.094;2023-07-31T07:44:05;19.30;85.90
26254;DHT22;53339;51.378;0.094;2023-07-31T07:46:34;19.30;85.90
26254;DHT22;53339;51.378;0.094;2023-07-31T07:49:06;19.40;85.90
26254;DHT22;53339;51.378;0.094;2023-07-31T07:51:35;19.50;85.80
26254;DHT22;53339;51.378;0.094;2023-07-31T07:54:03;19.50;85.60
26254;DHT22;53339;51.378;0.094;2023-07-31T07:56:33;19.60;85.50
26254;DHT22;53339;51.378;0.094;2023-07-31T07:59:05;19.70;85.50
26254;DHT22;53339;51.378;0.094;2023-07-31T08:01:36;19.70;84.90
26254;DHT22;53339;51.378;0.094;2023-07-31T08:04:04;19.70;85.00
26254;DHT22;53339;51.378;0.094;2023-07-31T08:06:33;19.70;84.90
26254;DHT22;53339;51.378;0.094;2023-07-31T08:09:21;19.60;84.70
26254;DHT22;53339;51.378;0.094;2023-07-31T08:11:52;19.60;85.10
26254;DHT22;53339;51.378;0.094;2023-07-31T08:14:21;19.60;85.10
26254;DHT22;53339;51.378;0.094;2023-07-31T08:16:51;19.70;85.40
26254;DHT22;53339;51.378;0.094;2023-07-31T08:19:20;19.80;85.10
26254;DHT22;53339;51.378;0.094;2023-07-31T08:21:49;19.90;84.80
26254;DHT22;53339;51.378;0.094;2023-07-31T08:24:21;19.90;84.60
26254;DHT22;53339;51.378;0.094;2023-07-31T08:26:51;19.90;84.40
26254;DHT22;53339;51.378;0.094;2023-07-31T08:29:20;20.00;84.50
26254;DHT22;53339;51.378;0.094;2023-07-31T08:31:49;20.00;84.10
26254;DHT22;53339;51.378;0.094;2023-07-31T08:34:20;20.10;83.80
26254;DHT22;53339;51.378;0.094;2023-07-31T08:36:48;20.20;83.90
26254;DHT22;53339;51.378;0.094;2023-07-31T08:39:16;20.30;83.70
26254;DHT22;53339;51.378;0.094;2023-07-31T08:41:48;20.50;83.40
26254;DHT22;53339;51.378;0.094;2023-07-31T08:44:18;20.60;82.60
26254;DHT22;53339;51.378;0.094;2023-07-31T08:46:48;20.70;82.90
26254;DHT22;53339;51.378;0.094;2023-07-31T08:49:21;20.70;82.60
26254;DHT22;53339;51.378;0.094;2023-07-31T08:51:55;20.60;82.80
26254;DHT22;53339;51.378;0.094;2023-07-31T08:54:26;20.60;82.40
26254;DHT22;53339;51.378;0.094;2023-07-31T08:57:05;20.50;82.30
26254;DHT22;53339;51.378;0.094;2023-07-31T08:59:36;20.50;82.10
26254;DHT22;53339;51.378;0.094;2023-07-31T09:02:08;20.60;82.60
26254;DHT22;53339;51.378;0.094;2023-07-31T09:04:37;20.70;83.00
26254;DHT22;53339;51.378;0.094;2023-07-31T09:07:13;20.70;82.80
26254;DHT22;53339;51.378;0.094;2023-07-31T09:09:45;20.70;82.80
26254;DHT22;53339;51.378;0.094;2023-07-31T09:12:16;20.60;82.50
26254;DHT22;53339;51.378;0.094;2023-07-31T09:14:45;20.50;82.60
26254;DHT22;53339;51.378;0.094;2023-07-31T09:17:14;20.40;83.00
26254;DHT22;53339;51.378;0.094;2023-07-31T09:19:43;20.40;82.70
26254;DHT22;53339;51.378;0.094;2023-07-31T09:22:16;20.30;83.00
26254;DHT22;53339;51.378;0.094;2023-07-31T09:24:48;20.30;82.70
26254;DHT22;53339;51.378;0.094;2023-07-31T09:27:17;20.20;82.70
26254;DHT22;53339;51.378;0.094;2023-07-31T09:29:44;20.20;82.70
26254;DHT22;53339;51.378;0.094;2023-07-31T09:32:16;20.20;82.80
26254;DHT22;53339;51.378;0.094;2023-07-31T09:34:45;20.30;83.30
26254;DHT22;53339;51.378;0.094;2023-07-31T09:37:13;20.30;83.10
26254;DHT22;53339;51.378;0.094;2023-07-31T09:39:46;20.30;83.10
26254;DHT22;53339;51.378;0.094;2023-07-31T09:42:26;20.40;82.50
26254;DHT22;53339;51.378;0.094;2023-07-31T09:45:08;20.40;82.30
26254;DHT22;53339;51.378;0.094;2023-07-31T09:47:47;20.40;82.50
26254;DHT22;53339;51.378;0.094;2023-07-31T09:50:24;20.30;82.30
26254;DHT22;53339;51.378;0.094;2023-07-31T09:52:55;20.30;81.80
26254;DHT22;53339;51.378;0.094;2023-07-31T09:55:24;20.20;82.40
26254;DHT22;53339;51.378;0.094;2023-07-31T09:57:55;20.20;82.50
26254;DHT22;53339;51.378;0.094;2023-07-31T10:00:26;20.30;82.50
26254;DHT22;53339;51.378;0.094;2023-07-31T10:03:04;20.40;82.60
26254;DHT22;53339;51.378;0.094;2023-07-31T10:05:52;20.60;82.50
26254;DHT22;53339;51.378;0.094;2023-07-31T10:08:28;20.70;82.50
26254;DHT22;53339;51.378;0.094;2023-07-31T10:11:00;20.80;81.20
26254;DHT22;53339;51.378;0.094;2023-07-31T10:13:34;20.90;80.80
26254;DHT22;53339;51.378;0.094;2023-07-31T10:16:03;20.90;80.70
26254;DHT22;53339;51.378;0.094;2023-07-31T10:18:32;21.00;80.70
26254;DHT22;53339;51.378;0.094;2023-07-31T10:21:05;21.00;80.60
26254;DHT22;53339;51.378;0.094;2023-07-31T10:23:57;21.10;80.30
26254;DHT22;53339;51.378;0.094;2023-07-31T10:26:29;21.20;80.40
26254;DHT22;53339;51.378;0.094;2023-07-31T10:28:59;21.10;79.80
26254;DHT22;53339;51.378;0.094;2023-07-31T10:31:32;21.10;79.10
26254;DHT22;53339;51.378;0.094;2023-07-31T10:34:04;21.00;78.70
26254;DHT22;53339;51.378;0.094;2023-07-31T10:36:39;21.00;79.10
26254;DHT22;53339;51.378;0.094;2023-07-31T10:39:37;20.90;78.80
26254;DHT22;53339;51.378;0.094;2023-07-31T10:42:38;20.90;79.30
26254;DHT22;53339;51.378;0.094;2023-07-31T10:45:25;20.90;79.80
26254;DHT22;53339;51.378;0.094;2023-07-31T10:48:01;21.00;79.60
26254;DHT22;53339;51.378;0.094;2023-07-31T10:50:36;21.10;79.70
26254;DHT22;53339;51.378;0.094;2023-07-31T10:53:40;21.20;79.90
26254;DHT22;53339;51.378;0.094;2023-07-31T10:56:13;21.30;80.50
26254;DHT22;53339;51.378;0.094;2023-07-31T10:59:00;21.40;78.10
26254;DHT22;53339;51.378;0.094;2023-07-31T11:01:55;21.30;78.20
26254;DHT22;53339;51.378;0.094;2023-07-31T11:04:31;21.40;78.00
26254;DHT22;53339;51.378;0.094;2023-07-31T11:07:02;21.50;78.00
26254;DHT22;53339;51.378;0.094;2023-07-31T11:09:36;21.50;77.20
26254;DHT22;53339;51.378;0.094;2023-07-31T11:12:08;21.50;78.10
26254;DHT22;53339;51.378;0.094;2023-07-31T11:14:41;21.40;78.80
26254;DHT22;53339;51.378;0.094;2023-07-31T11:17:13;21.50;78.70
26254;DHT22;53339;51.378;0.094;2023-07-31T11:19:50;21.50;79.10
26254;DHT22;53339;51.378;0.094;2023-07-31T11:22:18;21.40;77.80
26254;DHT22;53339;51.378;0.094;2023-07-31T11:24:50;21.40;78.20
26254;DHT22;53339;51.378;0.094;2023-07-31T11:27:18;21.40;77.80
26254;DHT22;53339;51.378;0.094;2023-07-31T11:29:51;21.40;77.90
26254;DHT22;53339;51.378;0.094;2023-07-31T11:32:21;21.40;77.30
26254;DHT22;53339;51.378;0.094;2023-07-31T11:34:55;21.30;76.80
26254;DHT22;53339;51.378;0.094;2023-07-31T11:37:23;21.30;77.40
26254;DHT22;53339;51.378;0.094;2023-07-31T11:40:02;21.30;77.50
26254;DHT22;53339;51.378;0.094;2023-07-31T11:42:31;21.40;77.30
26254;DHT22;53339;51.378;0.094;2023-07-31T11:45:03;21.50;74.90
26254;DHT22;53339;51.378;0.094;2023-07-31T11:47:33;21.50;72.50
26254;DHT22;53339;51.378;0.094;2023-07-31T11:50:10;21.50;70.00
26254;DHT22;53339;51.378;0.094;2023-07-31T11:52:44;21.40;67.50
26254;DHT22;53339;51.378;0.094;2023-07-31T11:55:14;21.30;67.50
26254;DHT22;53339;51.378;0.094;2023-07-31T11:57:47;21.20;67.40
26254;DHT22;53339;51.378;0.094;2023-07-31T12:00:16;21.20;66.80
26254;DHT22;53339;51.378;0.094;2023-07-31T12:02:50;21.10;66.40
26254;DHT22;53339;51.378;0.094;2023-07-31T12:05:29;21.20;66.90
26254;DHT22;53339;51.378;0.094;2023-07-31T12:08:16;21.20;66.70
26254;DHT22;53339;51.378;0.094;2023-07-31T12:10:50;21.30;66.90
26254;DHT22;53339;51.378;0.094;2023-07-31T12:13:34;21.40;66.90
26254;DHT22;53339;51.378;0.094;2023-07-31T12:16:07;21.50;65.70
26254;DHT22;53339;51.378;0.094;2023-07-31T12:18:39;21.50;66.60
26254;DHT22;53339;51.378;0.094;2023-07-31T12:21:08;21.40;66.90
26254;DHT22;53339;51.378;0.094;2023-07-31T12:23:39;21.30;67.10
26254;DHT22;53339;51.378;0.094;2023-07-31T12:26:16;21.10;67.40
26254;DHT22;53339;51.378;0.094;2023-07-31T12:28:46;21.00;67.90
26254;DHT22;53339;51.378;0.094;2023-07-31T12:31:17;20.90;67.90
26254;DHT22;53339;51.378;0.094;2023-07-31T12:33:50;20.80;68.40
26254;DHT22;53339;51.378;0.094;2023-07-31T12:36:25;20.70;68.40
26254;DHT22;53339;51.378;0.094;2023-07-31T12:38:55;20.60;69.00
26254;DHT22;53339;51.378;0.094;2023-07-31T12:41:30;20.50;68.60
26254;DHT22;53339;51.378;0.094;2023-07-31T12:43:59;20.40;69.60
26254;DHT22;53339;51.378;0.094;2023-07-31T12:46:35;20.30;70.00
26254;DHT22;53339;51.378;0.094;2023-07-31T12:49:12;20.30;70.10
26254;DHT22;53339;51.378;0.094;2023-07-31T12:51:40;20.30;71.30
26254;DHT22;53339;51.378;0.094;2023-07-31T12:54:10;20.40;72.00
26254;DHT22;53339;51.378;0.094;2023-07-31T12:56:43;20.40;72.10
26254;DHT22;53339;51.378;0.094;2023-07-31T12:59:12;20.40;72.20
26254;DHT22;53339;51.378;0.094;2023-07-31T13:01:45;20.40;72.20
26254;DHT22;53339;51.378;0.094;2023-07-31T13:04:14;20.40;71.40
26254;DHT22;53339;51.378;0.094;2023-07-31T13:06:42;20.20;71.70
26254;DHT22;53339;51.378;0.094;2023-07-31T13:09:11;20.10;72.70
26254;DHT22;53339;51.378;0.094;2023-07-31T13:11:43;19.90;73.90
26254;DHT22;53339;51.378;0.094;2023-07-31T13:14:11;19.70;74.60
26254;DHT22;53339;51.378;0.094;2023-07-31T13:16:43;19.30;75.60
26254;DHT22;53339;51.378;0.094;2023-07-31T13:19:12;19.00;76.00
26254;DHT22;53339;51.378;0.094;2023-07-31T13:21:43;18.60;77.10
26254;DHT22;53339;51.378;0.094;2023-07-31T13:24:13;18.30;78.10
26254;DHT22;53339;51.378;0.094;2023-07-31T13:26:41;18.10;79.20
26254;DHT22;53339;51.378;0.094;2023-07-31T13:29:14;17.80;80.00
26254;DHT22;53339;51.378;0.094;2023-07-31T13:31:44;17.70;81.10
26254;DHT22;53339;51.378;0.094;2023-07-31T13:34:12;17.50;81.60
26254;DHT22;53339;51.378;0.094;2023-07-31T13:36:42;17.40;82.30
26254;DHT22;53339;51.378;0.094;2023-07-31T13:39:11;17.20;82.70
26254;DHT22;53339;51.378;0.094;2023-07-31T13:41:40;17.20;83.00
26254;DHT22;53339;51.378;0.094;2023-07-31T13:44:10;17.10;83.40
26254;DHT22;53339;51.378;0.094;2023-07-31T13:46:46;17.10;83.70
26254;DHT22;53339;51.378;0.094;2023-07-31T13:49:19;17.10;83.90
26254;DHT22;53339;51.378;0.094;2023-07-31T13:51:50;17.10;84.10
26254;DHT22;53339;51.378;0.094;2023-07-31T13:54:19;17.10;84.50
26254;DHT22;53339;51.378;0.094;2023-07-31T13:56:53;17.10;84.70
26254;DHT22;53339;51.378;0.094;2023-07-31T13:59:21;17.10;84.60
26254;DHT22;53339;51.378;0.094;2023-07-31T14:01:56;17.00;84.50
26254;DHT22;53339;51.378;0.094;2023-07-31T14:04:30;16.90;84.70
26254;DHT22;53339;51.378;0.094;2023-07-31T14:07:00;16.90;84.60
26254;DHT22;53339;51.378;0.094;2023-07-31T14:09:35;16.70;84.80
26254;DHT22;53339;51.378;0.094;2023-07-31T14:12:03;16.70;85.00
26254;DHT22;53339;51.378;0.094;2023-07-31T14:14:36;16.70;85.20
26254;DHT22;53339;51.378;0.094;2023-07-31T14:17:08;16.60;85.40
26254;DHT22;53339;51.378;0.094;2023-07-31T14:19:37;16.60;85.50
26254;DHT22;53339;51.378;0.094;2023-07-31T14:22:10;16.60;85.40
26254;DHT22;53339;51.378;0.094;2023-07-31T14:24:39;16.50;85.60
26254;DHT22;53339;51.378;0.094;2023-07-31T14:27:10;16.60;85.80
26254;DHT22;53339;51.378;0.094;2023-07-31T14:29:39;16.50;86.00
26254;DHT22;53339;51.378;0.094;2023-07-31T14:32:18;16.60;86.20
26254;DHT22;53339;51.378;0.094;2023-07-31T14:34:48;16.50;86.10
26254;DHT22;53339;51.378;0.094;2023-07-31T14:37:16;16.50;86.10
26254;DHT22;53339;51.378;0.094;2023-07-31T14:39:44;16.40;86.20
26254;DHT22;53339;51.378;0.094;2023-07-31T14:42:14;16.40;86.30
26254;DHT22;53339;51.378;0.094;2023-07-31T14:44:44;16.40;86.50
26254;DHT22;53339;51.378;0.094;2023-07-31T14:47:14;16.50;86.70
26254;DHT22;53339;51.378;0.094;2023-07-31T14:49:43;16.50;86.80
26254;DHT22;53339;51.378;0.094;2023-07-31T14:52:11;16.60;87.00
26254;DHT22;53339;51.378;0.094;2023-07-31T14:54:39;16.60;86.80
26254;DHT22;53339;51.378;0.094;2023-07-31T14:57:10;16.70;86.50
26254;DHT22;53339;51.378;0.094;2023-07-31T14:59:38;16.70;86.50
26254;DHT22;53339;51.378;0.094;2023-07-31T15:02:08;16.70;86.50
26254;DHT22;53339;51.378;0.094;2023-07-31T15:04:49;16.70;86.50
26254;DHT22;53339;51.378;0.094;2023-07-31T15:07:17;16.80;86.40
26254;DHT22;53339;51.378;0.094;2023-07-31T15:09:45;16.70;85.90
26254;DHT22;53339;51.378;0.094;2023-07-31T15:12:16;16.70;86.10
26254;DHT22;53339;51.378;0.094;2023-07-31T15:14:47;16.80;86.10
26254;DHT22;53339;51.378;0.094;2023-07-31T15:17:17;16.90;86.30
26254;DHT22;53339;51.378;0.094;2023-07-31T15:19:46;16.90;86.00
26254;DHT22;53339;51.378;0.094;2023-07-31T15:22:28;17.10;86.20
26254;DHT22;53339;51.378;0.094;2023-07-31T15:24:57;17.30;86.40
26254;DHT22;53339;51.378;0.094;2023-07-31T15:27:26;17.50;85.60
26254;DHT22;53339;51.378;0.094;2023-07-31T15:30:02;17.60;85.00
26254;DHT22;53339;51.378;0.094;2023-07-31T15:32:34;17.80;84.60
26254;DHT22;53339;51.378;0.094;2023-07-31T15:35:10;17.90;84.20
26254;DHT22;53339;51.378;0.094;2023-07-31T15:37:42;18.00;84.40
26254;DHT22;53339;51.378;0.094;2023-07-31T15:40:18;18.20;84.50
26254;DHT22;53339;51.378;0.094;2023-07-31T15:42:46;18.30;84.10
26254;DHT22;53339;51.378;0.094;2023-07-31T15:45:14;18.30;84.00
26254;DHT22;53339;51.378;0.094;2023-07-31T15:47:43;18.30;83.80
26254;DHT22;53339;51.378;0.094;2023-07-31T15:50:17;18.20;83.60
26254;DHT22;53339;51.378;0.094;2023-07-31T15:52:55;18.30;83.40
26254;DHT22;53339;51.378;0.094;2023-07-31T15:55:29;18.40;83.70
26254;DHT22;53339;51.378;0.094;2023-07-31T15:58:01;18.40;83.90
26254;DHT22;53339;51.378;0.094;2023-07-31T16:00:29;18.50;83.90
26254;DHT22;53339;51.378;0.094;2023-07-31T16:03:00;18.60;83.90
26254;DHT22;53339;51.378;0.094;2023-07-31T16:05:29;18.60;82.90
26254;DHT22;53339;51.378;0.094;2023-07-31T16:07:59;18.70;82.40
26254;DHT22;53339;51.378;0.094;2023-07-31T16:10:28;18.70;82.00
26254;DHT22;53339;51.378;0.094;2023-07-31T16:12:57;18.70;81.60
26254;DHT22;53339;51.378;0.094;2023-07-31T16:15:27;18.90;81.80